sensor_id;sensor_type;location;lat;lon;timestamp;temperature;humidity
21895;DHT22;11112;51.270;7.224;2022-12-13T00:01:26;2.40;91.80
21895;DHT22;11112;51.270;7.224;2022-12-13T00:03:55;2.40;91.60
21895;DHT22;11112;51.270;7.224;2022-12-13T00:06:24;2.30;91.70
21895;DHT22;11112;51.270;7.224;2022-12-13T00:08:52;2.20;91.50
21895;DHT22;11112;51.270;7.224;2022-12-13T00:11:20;2.00;91.50
21895;DHT22;11112;51.270;7.224;2022-12-13T00:13:48;2.00;91.70
21895;DHT22;11112;51.270;7.224;2022-12-13T00:16:18;2.10;91.90
21895;DHT22;11112;51.270;7.224;2022-12-13T00:18:48;2.00;91.80
21895;DHT22;11112;51.270;7.224;2022-12-13T00:21:18;2.00;91.90
21895;DHT22;11112;51.270;7.224;2022-12-13T00:23:47;2.00;91.70
21895;DHT22;11112;51.270;7.224;2022-12-13T00:26:17;2.00;91.60
21895;DHT22;11112;51.270;7.224;2022-12-13T00:28:49;1.90;91.60
21895;DHT22;11112;51.270;7.224;2022-12-13T00:31:18;2.00;91.90
21895;DHT22;11112;51.270;7.224;2022-12-13T00:33:46;2.00;91.60
21895;DHT22;11112;51.270;7.224;2022-12-13T00:36:15;1.90;91.60
21895;DHT22;11112;51.270;7.224;2022-12-13T00:38:43;2.00;91.80
21895;DHT22;11112;51.270;7.224;2022-12-13T00:41:12;2.10;92.00
21895;DHT22;11112;51.270;7.224;2022-12-13T00:43:40;2.10;91.90
21895;DHT22;11112;51.270;7.224;2022-12-13T00:46:13;2.10;91.50
21895;DHT22;11112;51.270;7.224;2022-12-13T00:48:41;2.00;91.40
21895;DHT22;11112;51.270;7.224;2022-12-13T00:51:24;2.00;91.50
21895;DHT22;11112;51.270;7.224;2022-12-13T00:53:52;1.90;91.40
21895;DHT22;11112;51.270;7.224;2022-12-13T00:56:22;1.90;91.40
21895;DHT22;11112;51.270;7.224;2022-12-13T00:58:52;1.90;91.80
21895;DHT22;11112;51.270;7.224;2022-12-13T01:01:23;1.90;91.60
21895;DHT22;11112;51.270;7.224;2022-12-13T01:03:52;1.90;91.60
21895;DHT22;11112;51.270;7.224;2022-12-13T01:06:22;1.90;91.60
21895;DHT22;11112;51.270;7.224;2022-12-13T01:08:52;2.00;91.50
21895;DHT22;11112;51.270;7.224;2022-12-13T01:11:22;2.00;91.40
21895;DHT22;11112;51.270;7.224;2022-12-13T01:13:49;1.90;91.10
21895;DHT22;11112;51.270;7.224;2022-12-13T01:16:17;1.80;91.10
21895;DHT22;11112;51.270;7.224;2022-12-13T01:18:46;1.70;91.60
21895;DHT22;11112;51.270;7.224;2022-12-13T01:21:15;1.80;91.30
21895;DHT22;11112;51.270;7.224;2022-12-13T01:23:44;1.80;91.40
21895;DHT22;11112;51.270;7.224;2022-12-13T01:26:12;1.90;91.10
21895;DHT22;11112;51.270;7.224;2022-12-13T01:28:41;1.80;91.10
21895;DHT22;11112;51.270;7.224;2022-12-13T01:31:10;1.70;91.30
21895;DHT22;11112;51.270;7.224;2022-12-13T01:33:39;1.70;91.20
21895;DHT22;11112;51.270;7.224;2022-12-13T01:36:10;1.70;91.20
21895;DHT22;11112;51.270;7.224;2022-12-13T01:38:41;1.70;91.10
21895;DHT22;11112;51.270;7.224;2022-12-13T01:41:09;1.60;91.00
21895;DHT22;11112;51.270;7.224;2022-12-13T01:43:55;1.50;91.10
21895;DHT22;11112;51.270;7.224;2022-12-13T01:46:26;1.50;91.30
21895;DHT22;11112;51.270;7.224;2022-12-13T01:48:58;1.50;91.40
21895;DHT22;11112;51.270;7.224;2022-12-13T01:51:33;1.40;91.20
21895;DHT22;11112;51.270;7.224;2022-12-13T01:54:03;1.40;91.20
21895;DHT22;11112;51.270;7.224;2022-12-13T01:56:35;1.50;91.40
21895;DHT22;11112;51.270;7.224;2022-12-13T01:59:06;1.50;91.20
21895;DHT22;11112;51.270;7.224;2022-12-13T02:01:34;1.50;91.50
21895;DHT22;11112;51.270;7.224;2022-12-13T02:04:02;1.60;91.50
21895;DHT22;11112;51.270;7.224;2022-12-13T02:06:33;1.60;91.30
21895;DHT22;11112;51.270;7.224;2022-12-13T02:09:04;1.70;91.40
21895;DHT22;11112;51.270;7.224;2022-12-13T02:11:33;1.70;91.20
21895;DHT22;11112;51.270;7.224;2022-12-13T02:14:01;1.70;91.30
21895;DHT22;11112;51.270;7.224;2022-12-13T02:16:40;1.70;91.10
21895;DHT22;11112;51.270;7.224;2022-12-13T02:22:47;1.60;91.10
21895;DHT22;11112;51.270;7.224;2022-12-13T02:25:49;1.60;90.80
21895;DHT22;11112;51.270;7.224;2022-12-13T02:28:40;1.40;90.90
21895;DHT22;11112;51.270;7.224;2022-12-13T02:31:26;1.50;91.10
21895;DHT22;11112;51.270;7.224;2022-12-13T02:34:00;1.40;90.90
21895;DHT22;11112;51.270;7.224;2022-12-13T02:36:36;1.40;90.90
21895;DHT22;11112;51.270;7.224;2022-12-13T02:39:09;1.40;91.00
21895;DHT22;11112;51.270;7.224;2022-12-13T02:41:42;1.50;91.20
21895;DHT22;11112;51.270;7.224;2022-12-13T02:44:17;1.50;91.10
21895;DHT22;11112;51.270;7.224;2022-12-13T02:46:50;1.50;90.80
21895;DHT22;11112;51.270;7.224;2022-12-13T02:49:24;1.50;90.90
21895;DHT22;11112;51.270;7.224;2022-12-13T02:51:55;1.50;90.80
21895;DHT22;11112;51.270;7.224;2022-12-13T02:54:24;1.40;90.60
21895;DHT22;11112;51.270;7.224;2022-12-13T02:56:54;1.40;90.80
21895;DHT22;11112;51.270;7.224;2022-12-13T02:59:26;1.50;90.80
21895;DHT22;11112;51.270;7.224;2022-12-13T03:02:06;1.30;90.50
21895;DHT22;11112;51.270;7.224;2022-12-13T03:04:42;1.30;90.50
21895;DHT22;11112;51.270;7.224;2022-12-13T03:07:35;1.30;90.90
21895;DHT22;11112;51.270;7.224;2022-12-13T03:10:08;1.30;91.10
21895;DHT22;11112;51.270;7.224;2022-12-13T03:12:43;1.50;91.00
21895;DHT22;11112;51.270;7.224;2022-12-13T03:15:37;1.50;90.80
21895;DHT22;11112;51.270;7.224;2022-12-13T03:18:13;1.50;90.70
21895;DHT22;11112;51.270;7.224;2022-12-13T03:20:45;1.50;90.50
21895;DHT22;11112;51.270;7.224;2022-12-13T03:23:14;1.40;90.70
21895;DHT22;11112;51.270;7.224;2022-12-13T03:25:43;1.50;90.80
21895;DHT22;11112;51.270;7.224;2022-12-13T03:28:12;1.50;90.70
21895;DHT22;11112;51.270;7.224;2022-12-13T03:30:43;1.40;90.70
21895;DHT22;11112;51.270;7.224;2022-12-13T03:33:12;1.40;90.70
21895;DHT22;11112;51.270;7.224;2022-12-13T03:35:40;1.50;90.70
21895;DHT22;11112;51.270;7.224;2022-12-13T03:38:08;1.40;90.30
21895;DHT22;11112;51.270;7.224;2022-12-13T03:40:36;1.40;90.60
21895;DHT22;11112;51.270;7.224;2022-12-13T03:43:03;1.40;90.60
21895;DHT22;11112;51.270;7.224;2022-12-13T03:45:30;1.40;90.50
21895;DHT22;11112;51.270;7.224;2022-12-13T03:47:57;1.40;90.60
21895;DHT22;11112;51.270;7.224;2022-12-13T03:50:26;1.40;90.60
21895;DHT22;11112;51.270;7.224;2022-12-13T03:52:57;1.40;90.60
21895;DHT22;11112;51.270;7.224;2022-12-13T03:55:26;1.40;90.90
21895;DHT22;11112;51.270;7.224;2022-12-13T03:57:54;1.40;90.70
21895;DHT22;11112;51.270;7.224;2022-12-13T04:00:22;1.40;90.60
21895;DHT22;11112;51.270;7.224;2022-12-13T04:02:49;1.40;90.60
21895;DHT22;11112;51.270;7.224;2022-12-13T04:05:17;1.30;90.40
21895;DHT22;11112;51.270;7.224;2022-12-13T04:07:46;1.30;90.50
21895;DHT22;11112;51.270;7.224;2022-12-13T04:10:15;1.40;90.40
21895;DHT22;11112;51.270;7.224;2022-12-13T04:12:43;1.30;90.30
21895;DHT22;11112;51.270;7.224;2022-12-13T04:15:28;1.30;90.40
21895;DHT22;11112;51.270;7.224;2022-12-13T04:17:56;1.40;90.40
21895;DHT22;11112;51.270;7.224;2022-12-13T04:20:24;1.40;90.50
21895;DHT22;11112;51.270;7.224;2022-12-13T04:22:54;1.40;90.40
21895;DHT22;11112;51.270;7.224;2022-12-13T04:25:21;1.40;90.30
21895;DHT22;11112;51.270;7.224;2022-12-13T04:27:48;1.30;90.10
21895;DHT22;11112;51.270;7.224;2022-12-13T04:30:16;1.30;90.10
21895;DHT22;11112;51.270;7.224;2022-12-13T04:32:44;1.30;90.10
21895;DHT22;11112;51.270;7.224;2022-12-13T04:35:11;1.40;90.20
21895;DHT22;11112;51.270;7.224;2022-12-13T04:37:38;1.30;90.10
21895;DHT22;11112;51.270;7.224;2022-12-13T04:40:08;1.30;90.00
21895;DHT22;11112;51.270;7.224;2022-12-13T04:42:37;1.30;89.90
21895;DHT22;11112;51.270;7.224;2022-12-13T04:45:08;1.30;90.00
21895;DHT22;11112;51.270;7.224;2022-12-13T04:47:36;1.30;90.00
21895;DHT22;11112;51.270;7.224;2022-12-13T04:50:04;1.40;90.10
21895;DHT22;11112;51.270;7.224;2022-12-13T04:52:33;1.40;90.20
21895;DHT22;11112;51.270;7.224;2022-12-13T04:55:00;1.20;89.80
21895;DHT22;11112;51.270;7.224;2022-12-13T04:57:29;1.10;90.20
21895;DHT22;11112;51.270;7.224;2022-12-13T04:59:57;0.90;90.30
21895;DHT22;11112;51.270;7.224;2022-12-13T05:02:25;0.90;90.60
21895;DHT22;11112;51.270;7.224;2022-12-13T05:04:52;1.00;90.30
21895;DHT22;11112;51.270;7.224;2022-12-13T05:07:20;1.00;90.30
21895;DHT22;11112;51.270;7.224;2022-12-13T05:09:49;1.10;90.40
21895;DHT22;11112;51.270;7.224;2022-12-13T05:12:16;1.10;90.30
21895;DHT22;11112;51.270;7.224;2022-12-13T05:14:45;1.10;90.20
21895;DHT22;11112;51.270;7.224;2022-12-13T05:17:13;1.20;89.90
21895;DHT22;11112;51.270;7.224;2022-12-13T05:19:41;1.10;90.00
21895;DHT22;11112;51.270;7.224;2022-12-13T05:22:09;1.10;90.10
21895;DHT22;11112;51.270;7.224;2022-12-13T05:24:40;1.10;90.20
21895;DHT22;11112;51.270;7.224;2022-12-13T05:27:09;1.20;90.10
21895;DHT22;11112;51.270;7.224;2022-12-13T05:29:37;1.20;89.90
21895;DHT22;11112;51.270;7.224;2022-12-13T05:32:06;1.20;89.60
21895;DHT22;11112;51.270;7.224;2022-12-13T05:34:33;1.20;89.80
21895;DHT22;11112;51.270;7.224;2022-12-13T05:37:03;1.20;89.80
21895;DHT22;11112;51.270;7.224;2022-12-13T05:39:31;1.20;89.70
21895;DHT22;11112;51.270;7.224;2022-12-13T05:41:58;1.10;89.80
21895;DHT22;11112;51.270;7.224;2022-12-13T05:44:26;1.10;89.30
21895;DHT22;11112;51.270;7.224;2022-12-13T05:46:54;1.10;89.70
21895;DHT22;11112;51.270;7.224;2022-12-13T05:49:24;1.10;89.60
21895;DHT22;11112;51.270;7.224;2022-12-13T05:51:51;1.10;89.50
21895;DHT22;11112;51.270;7.224;2022-12-13T05:54:18;1.00;89.00
21895;DHT22;11112;51.270;7.224;2022-12-13T05:56:45;1.00;89.60
21895;DHT22;11112;51.270;7.224;2022-12-13T05:59:13;1.00;90.00
21895;DHT22;11112;51.270;7.224;2022-12-13T06:01:40;1.10;90.00
21895;DHT22;11112;51.270;7.224;2022-12-13T06:04:08;1.10;89.80
21895;DHT22;11112;51.270;7.224;2022-12-13T06:06:36;1.00;89.80
21895;DHT22;11112;51.270;7.224;2022-12-13T06:09:04;1.10;90.00
21895;DHT22;11112;51.270;7.224;2022-12-13T06:11:32;1.00;89.20
21895;DHT22;11112;51.270;7.224;2022-12-13T06:13:59;1.00;89.80
21895;DHT22;11112;51.270;7.224;2022-12-13T06:16:27;1.00;89.40
21895;DHT22;11112;51.270;7.224;2022-12-13T06:18:55;1.10;89.60
21895;DHT22;11112;51.270;7.224;2022-12-13T06:21:22;1.10;89.30
21895;DHT22;11112;51.270;7.224;2022-12-13T06:23:53;1.10;89.30
21895;DHT22;11112;51.270;7.224;2022-12-13T06:26:20;1.10;90.00
21895;DHT22;11112;51.270;7.224;2022-12-13T06:28:48;1.10;89.00
21895;DHT22;11112;51.270;7.224;2022-12-13T06:31:15;1.00;88.90
21895;DHT22;11112;51.270;7.224;2022-12-13T06:33:43;0.90;88.50
21895;DHT22;11112;51.270;7.224;2022-12-13T06:36:11;0.80;88.70
21895;DHT22;11112;51.270;7.224;2022-12-13T06:38:38;0.80;88.60
21895;DHT22;11112;51.270;7.224;2022-12-13T06:41:09;0.90;89.10
21895;DHT22;11112;51.270;7.224;2022-12-13T06:43:37;0.90;89.20
21895;DHT22;11112;51.270;7.224;2022-12-13T06:46:07;0.90;89.20
21895;DHT22;11112;51.270;7.224;2022-12-13T06:48:34;0.90;88.70
21895;DHT22;11112;51.270;7.224;2022-12-13T06:51:03;0.80;88.80
21895;DHT22;11112;51.270;7.224;2022-12-13T06:53:33;0.90;89.40
21895;DHT22;11112;51.270;7.224;2022-12-13T06:56:03;0.90;89.60
21895;DHT22;11112;51.270;7.224;2022-12-13T06:58:33;0.90;89.20
21895;DHT22;11112;51.270;7.224;2022-12-13T07:01:01;0.90;88.90
21895;DHT22;11112;51.270;7.224;2022-12-13T07:03:29;0.90;89.20
21895;DHT22;11112;51.270;7.224;2022-12-13T07:05:57;0.90;89.10
21895;DHT22;11112;51.270;7.224;2022-12-13T07:08:26;0.90;89.50
21895;DHT22;11112;51.270;7.224;2022-12-13T07:10:53;0.90;89.60
21895;DHT22;11112;51.270;7.224;2022-12-13T07:13:21;1.00;89.40
21895;DHT22;11112;51.270;7.224;2022-12-13T07:15:50;0.90;88.90
21895;DHT22;11112;51.270;7.224;2022-12-13T07:18:17;0.80;89.10
21895;DHT22;11112;51.270;7.224;2022-12-13T07:20:45;0.90;89.10
21895;DHT22;11112;51.270;7.224;2022-12-13T07:23:12;0.80;89.40
21895;DHT22;11112;51.270;7.224;2022-12-13T07:25:40;0.90;88.90
21895;DHT22;11112;51.270;7.224;2022-12-13T07:28:08;0.90;89.00
21895;DHT22;11112;51.270;7.224;2022-12-13T07:30:37;0.90;88.80
21895;DHT22;11112;51.270;7.224;2022-12-13T07:33:08;0.90;88.70
21895;DHT22;11112;51.270;7.224;2022-12-13T07:35:36;0.90;88.30
21895;DHT22;11112;51.270;7.224;2022-12-13T07:38:05;0.80;88.60
21895;DHT22;11112;51.270;7.224;2022-12-13T07:40:33;0.80;88.60
21895;DHT22;11112;51.270;7.224;2022-12-13T07:43:01;0.90;88.70
21895;DHT22;11112;51.270;7.224;2022-12-13T07:45:28;0.90;89.00
21895;DHT22;11112;51.270;7.224;2022-12-13T07:47:55;0.90;88.70
21895;DHT22;11112;51.270;7.224;2022-12-13T07:50:24;0.80;88.50
21895;DHT22;11112;51.270;7.224;2022-12-13T07:52:52;0.80;88.60
21895;DHT22;11112;51.270;7.224;2022-12-13T07:55:19;0.80;88.50
21895;DHT22;11112;51.270;7.224;2022-12-13T07:57:47;0.80;88.10
21895;DHT22;11112;51.270;7.224;2022-12-13T08:00:15;0.70;88.60
21895;DHT22;11112;51.270;7.224;2022-12-13T08:02:43;0.70;88.70
21895;DHT22;11112;51.270;7.224;2022-12-13T08:05:11;0.70;89.80
21895;DHT22;11112;51.270;7.224;2022-12-13T08:07:41;0.70;88.90
21895;DHT22;11112;51.270;7.224;2022-12-13T08:10:08;0.60;88.90
21895;DHT22;11112;51.270;7.224;2022-12-13T08:12:36;0.60;89.10
21895;DHT22;11112;51.270;7.224;2022-12-13T08:15:04;0.60;90.00
21895;DHT22;11112;51.270;7.224;2022-12-13T08:17:32;0.70;89.80
21895;DHT22;11112;51.270;7.224;2022-12-13T08:20:00;0.60;88.60
21895;DHT22;11112;51.270;7.224;2022-12-13T08:22:28;0.60;88.70
21895;DHT22;11112;51.270;7.224;2022-12-13T08:24:57;0.60;88.90
21895;DHT22;11112;51.270;7.224;2022-12-13T08:27:26;0.60;88.60
21895;DHT22;11112;51.270;7.224;2022-12-13T08:29:56;0.50;87.80
21895;DHT22;11112;51.270;7.224;2022-12-13T08:32:24;0.50;88.60
21895;DHT22;11112;51.270;7.224;2022-12-13T08:34:51;0.50;88.80
21895;DHT22;11112;51.270;7.224;2022-12-13T08:37:19;0.50;88.60
21895;DHT22;11112;51.270;7.224;2022-12-13T08:39:46;0.50;89.10
21895;DHT22;11112;51.270;7.224;2022-12-13T08:42:17;0.50;89.10
21895;DHT22;11112;51.270;7.224;2022-12-13T08:44:46;0.60;89.80
21895;DHT22;11112;51.270;7.224;2022-12-13T08:47:14;0.70;90.10
21895;DHT22;11112;51.270;7.224;2022-12-13T08:49:43;0.70;90.00
21895;DHT22;11112;51.270;7.224;2022-12-13T08:52:11;0.80;89.80
21895;DHT22;11112;51.270;7.224;2022-12-13T08:54:39;0.70;90.00
21895;DHT22;11112;51.270;7.224;2022-12-13T08:57:08;0.80;90.10
21895;DHT22;11112;51.270;7.224;2022-12-13T08:59:39;0.70;89.90
21895;DHT22;11112;51.270;7.224;2022-12-13T09:02:11;0.60;89.80
21895;DHT22;11112;51.270;7.224;2022-12-13T09:04:38;0.50;89.90
21895;DHT22;11112;51.270;7.224;2022-12-13T09:07:06;0.60;90.30
21895;DHT22;11112;51.270;7.224;2022-12-13T09:09:33;0.60;90.40
21895;DHT22;11112;51.270;7.224;2022-12-13T09:12:01;0.70;90.60
21895;DHT22;11112;51.270;7.224;2022-12-13T09:14:29;0.70;90.40
21895;DHT22;11112;51.270;7.224;2022-12-13T09:16:58;0.70;90.70
21895;DHT22;11112;51.270;7.224;2022-12-13T09:19:26;0.70;90.60
21895;DHT22;11112;51.270;7.224;2022-12-13T09:21:56;0.80;90.80
21895;DHT22;11112;51.270;7.224;2022-12-13T09:24:25;0.80;90.90
21895;DHT22;11112;51.270;7.224;2022-12-13T09:26:53;0.80;90.70
21895;DHT22;11112;51.270;7.224;2022-12-13T09:29:20;0.80;91.00
21895;DHT22;11112;51.270;7.224;2022-12-13T09:31:47;0.90;91.00
21895;DHT22;11112;51.270;7.224;2022-12-13T09:34:16;1.00;91.10
21895;DHT22;11112;51.270;7.224;2022-12-13T09:36:43;1.00;91.10
21895;DHT22;11112;51.270;7.224;2022-12-13T09:39:12;1.00;91.20
21895;DHT22;11112;51.270;7.224;2022-12-13T09:41:41;1.00;91.40
21895;DHT22;11112;51.270;7.224;2022-12-13T09:44:23;1.00;91.20
21895;DHT22;11112;51.270;7.224;2022-12-13T09:46:54;1.10;91.30
21895;DHT22;11112;51.270;7.224;2022-12-13T09:49:27;1.20;91.30
21895;DHT22;11112;51.270;7.224;2022-12-13T09:51:58;1.20;91.40
21895;DHT22;11112;51.270;7.224;2022-12-13T09:54:27;1.30;91.50
21895;DHT22;11112;51.270;7.224;2022-12-13T09:56:56;1.30;91.20
21895;DHT22;11112;51.270;7.224;2022-12-13T09:59:27;1.30;91.50
21895;DHT22;11112;51.270;7.224;2022-12-13T10:01:55;1.20;91.30
21895;DHT22;11112;51.270;7.224;2022-12-13T10:04:28;1.20;91.40
21895;DHT22;11112;51.270;7.224;2022-12-13T10:06:56;1.30;91.60
21895;DHT22;11112;51.270;7.224;2022-12-13T10:09:24;1.30;91.50
21895;DHT22;11112;51.270;7.224;2022-12-13T10:11:52;1.30;91.30
21895;DHT22;11112;51.270;7.224;2022-12-13T10:14:24;1.40;91.20
21895;DHT22;11112;51.270;7.224;2022-12-13T10:16:56;1.30;91.20
21895;DHT22;11112;51.270;7.224;2022-12-13T10:19:32;1.40;91.10
21895;DHT22;11112;51.270;7.224;2022-12-13T10:22:06;1.40;90.90
21895;DHT22;11112;51.270;7.224;2022-12-13T10:24:49;1.40;90.70
21895;DHT22;11112;51.270;7.224;2022-12-13T10:27:19;1.40;90.60
21895;DHT22;11112;51.270;7.224;2022-12-13T10:29:59;1.40;90.80
21895;DHT22;11112;51.270;7.224;2022-12-13T10:32:29;1.50;90.90
21895;DHT22;11112;51.270;7.224;2022-12-13T10:35:11;1.50;91.00
21895;DHT22;11112;51.270;7.224;2022-12-13T10:37:46;1.50;90.90
21895;DHT22;11112;51.270;7.224;2022-12-13T10:40:26;1.50;91.10
21895;DHT22;11112;51.270;7.224;2022-12-13T10:43:21;1.60;91.20
21895;DHT22;11112;51.270;7.224;2022-12-13T10:45:57;1.60;91.20
21895;DHT22;11112;51.270;7.224;2022-12-13T10:48:33;1.70;91.10
21895;DHT22;11112;51.270;7.224;2022-12-13T10:51:06;1.70;91.10
21895;DHT22;11112;51.270;7.224;2022-12-13T10:53:37;1.70;90.90
21895;DHT22;11112;51.270;7.224;2022-12-13T10:56:06;1.70;91.10
21895;DHT22;11112;51.270;7.224;2022-12-13T10:58:37;1.70;91.20
21895;DHT22;11112;51.270;7.224;2022-12-13T11:01:18;1.80;91.10
21895;DHT22;11112;51.270;7.224;2022-12-13T11:03:58;1.80;90.90
21895;DHT22;11112;51.270;7.224;2022-12-13T11:06:40;1.80;91.20
21895;DHT22;11112;51.270;7.224;2022-12-13T11:09:13;1.90;91.20
21895;DHT22;11112;51.270;7.224;2022-12-13T11:11:43;1.80;90.60
21895;DHT22;11112;51.270;7.224;2022-12-13T11:14:17;1.80;90.90
21895;DHT22;11112;51.270;7.224;2022-12-13T11:16:49;1.70;90.80
21895;DHT22;11112;51.270;7.224;2022-12-13T11:19:20;1.70;90.30
21895;DHT22;11112;51.270;7.224;2022-12-13T11:21:51;1.70;90.40
21895;DHT22;11112;51.270;7.224;2022-12-13T11:24:21;1.70;90.60
21895;DHT22;11112;51.270;7.224;2022-12-13T11:26:56;1.70;90.60
21895;DHT22;11112;51.270;7.224;2022-12-13T11:29:42;1.80;90.60
21895;DHT22;11112;51.270;7.224;2022-12-13T11:32:21;1.90;90.60
21895;DHT22;11112;51.270;7.224;2022-12-13T11:35:02;1.80;90.20
21895;DHT22;11112;51.270;7.224;2022-12-13T11:37:44;1.80;90.00
21895;DHT22;11112;51.270;7.224;2022-12-13T11:40:23;1.80;89.80
21895;DHT22;11112;51.270;7.224;2022-12-13T11:42:56;1.80;89.50
21895;DHT22;11112;51.270;7.224;2022-12-13T11:45:32;1.80;89.40
21895;DHT22;11112;51.270;7.224;2022-12-13T11:48:06;1.80;89.30
21895;DHT22;11112;51.270;7.224;2022-12-13T11:50:44;1.80;89.80
21895;DHT22;11112;51.270;7.224;2022-12-13T11:53:34;1.80;89.70
21895;DHT22;11112;51.270;7.224;2022-12-13T11:56:17;1.80;90.00
21895;DHT22;11112;51.270;7.224;2022-12-13T11:58:55;1.80;89.30
21895;DHT22;11112;51.270;7.224;2022-12-13T12:01:31;1.80;89.20
21895;DHT22;11112;51.270;7.224;2022-12-13T12:04:11;1.80;89.30
21895;DHT22;11112;51.270;7.224;2022-12-13T12:06:47;1.90;89.30
21895;DHT22;11112;51.270;7.224;2022-12-13T12:09:20;1.90;89.00
21895;DHT22;11112;51.270;7.224;2022-12-13T12:11:53;1.90;89.40
21895;DHT22;11112;51.270;7.224;2022-12-13T12:14:34;1.90;89.30
21895;DHT22;11112;51.270;7.224;2022-12-13T12:17:05;1.90;89.40
21895;DHT22;11112;51.270;7.224;2022-12-13T12:19:36;1.90;89.00
21895;DHT22;11112;51.270;7.224;2022-12-13T12:22:17;2.00;89.10
21895;DHT22;11112;51.270;7.224;2022-12-13T12:25:10;2.00;89.30
21895;DHT22;11112;51.270;7.224;2022-12-13T12:27:50;2.00;88.70
21895;DHT22;11112;51.270;7.224;2022-12-13T12:30:25;2.10;89.60
21895;DHT22;11112;51.270;7.224;2022-12-13T12:33:06;2.10;89.40
21895;DHT22;11112;51.270;7.224;2022-12-13T12:36:00;2.10;90.10
21895;DHT22;11112;51.270;7.224;2022-12-13T12:42:03;2.10;89.20
21895;DHT22;11112;51.270;7.224;2022-12-13T12:44:47;2.20;89.80
21895;DHT22;11112;51.270;7.224;2022-12-13T12:47:32;2.30;89.90
21895;DHT22;11112;51.270;7.224;2022-12-13T12:50:21;2.30;89.70
21895;DHT22;11112;51.270;7.224;2022-12-13T12:53:06;2.30;89.10
21895;DHT22;11112;51.270;7.224;2022-12-13T12:55:49;2.30;89.30
21895;DHT22;11112;51.270;7.224;2022-12-13T12:58:25;2.30;89.50
21895;DHT22;11112;51.270;7.224;2022-12-13T13:01:06;2.40;89.80
21895;DHT22;11112;51.270;7.224;2022-12-13T13:03:41;2.40;89.00
21895;DHT22;11112;51.270;7.224;2022-12-13T13:06:11;2.40;88.80
21895;DHT22;11112;51.270;7.224;2022-12-13T13:08:44;2.50;89.10
21895;DHT22;11112;51.270;7.224;2022-12-13T13:11:13;2.50;88.80
21895;DHT22;11112;51.270;7.224;2022-12-13T13:14:02;2.50;88.20
21895;DHT22;11112;51.270;7.224;2022-12-13T13:16:51;2.50;87.90
21895;DHT22;11112;51.270;7.224;2022-12-13T13:19:40;2.50;87.90
21895;DHT22;11112;51.270;7.224;2022-12-13T13:22:28;2.50;87.60
21895;DHT22;11112;51.270;7.224;2022-12-13T13:28:03;2.60;88.60
21895;DHT22;11112;51.270;7.224;2022-12-13T13:30:34;2.60;88.50
21895;DHT22;11112;51.270;7.224;2022-12-13T13:33:02;2.70;88.60
21895;DHT22;11112;51.270;7.224;2022-12-13T13:35:50;2.70;88.30
21895;DHT22;11112;51.270;7.224;2022-12-13T13:38:27;2.70;87.20
21895;DHT22;11112;51.270;7.224;2022-12-13T13:41:39;2.70;88.00
21895;DHT22;11112;51.270;7.224;2022-12-13T13:47:38;2.70;87.60
21895;DHT22;11112;51.270;7.224;2022-12-13T13:50:35;2.70;86.70
21895;DHT22;11112;51.270;7.224;2022-12-13T13:54:00;2.70;86.00
21895;DHT22;11112;51.270;7.224;2022-12-13T14:00:16;2.60;85.80
21895;DHT22;11112;51.270;7.224;2022-12-13T14:13:10;2.60;86.20
21895;DHT22;11112;51.270;7.224;2022-12-13T14:16:50;2.60;86.00
21895;DHT22;11112;51.270;7.224;2022-12-13T14:23:38;2.60;86.40
21895;DHT22;11112;51.270;7.224;2022-12-13T14:26:22;2.60;86.70
21895;DHT22;11112;51.270;7.224;2022-12-13T14:28:58;2.60;86.90
21895;DHT22;11112;51.270;7.224;2022-12-13T14:31:31;2.60;87.00
21895;DHT22;11112;51.270;7.224;2022-12-13T14:34:03;2.60;88.10
21895;DHT22;11112;51.270;7.224;2022-12-13T14:36:36;2.60;88.90
21895;DHT22;11112;51.270;7.224;2022-12-13T14:39:05;2.60;88.30
21895;DHT22;11112;51.270;7.224;2022-12-13T14:41:45;2.60;88.10
21895;DHT22;11112;51.270;7.224;2022-12-13T14:44:14;2.60;88.10
21895;DHT22;11112;51.270;7.224;2022-12-13T14:46:51;2.60;88.10
21895;DHT22;11112;51.270;7.224;2022-12-13T14:49:22;2.50;88.10
21895;DHT22;11112;51.270;7.224;2022-12-13T14:51:57;2.50;88.10
21895;DHT22;11112;51.270;7.224;2022-12-13T14:54:31;2.50;88.70
21895;DHT22;11112;51.270;7.224;2022-12-13T14:57:12;2.50;88.80
21895;DHT22;11112;51.270;7.224;2022-12-13T14:59:44;2.50;88.70
21895;DHT22;11112;51.270;7.224;2022-12-13T15:02:15;2.50;89.10
21895;DHT22;11112;51.270;7.224;2022-12-13T15:04:44;2.50;89.10
21895;DHT22;11112;51.270;7.224;2022-12-13T15:07:22;2.60;89.20
21895;DHT22;11112;51.270;7.224;2022-12-13T15:09:56;2.60;89.50
21895;DHT22;11112;51.270;7.224;2022-12-13T15:12:25;2.60;89.40
21895;DHT22;11112;51.270;7.224;2022-12-13T15:14:59;2.60;89.60
21895;DHT22;11112;51.270;7.224;2022-12-13T15:17:31;2.60;89.60
21895;DHT22;11112;51.270;7.224;2022-12-13T15:20:01;2.70;89.90
21895;DHT22;11112;51.270;7.224;2022-12-13T15:22:56;2.70;89.80
21895;DHT22;11112;51.270;7.224;2022-12-13T15:25:25;2.80;90.00
21895;DHT22;11112;51.270;7.224;2022-12-13T15:27:56;2.80;89.90
21895;DHT22;11112;51.270;7.224;2022-12-13T15:30:24;2.70;89.70
21895;DHT22;11112;51.270;7.224;2022-12-13T15:33:02;2.70;89.70
21895;DHT22;11112;51.270;7.224;2022-12-13T15:35:39;2.70;90.00
21895;DHT22;11112;51.270;7.224;2022-12-13T15:38:13;2.70;90.00
21895;DHT22;11112;51.270;7.224;2022-12-13T15:40:48;2.70;89.80
21895;DHT22;11112;51.270;7.224;2022-12-13T15:43:17;2.70;90.30
21895;DHT22;11112;51.270;7.224;2022-12-13T15:45:49;2.70;89.60
21895;DHT22;11112;51.270;7.224;2022-12-13T15:48:23;2.70;89.50
21895;DHT22;11112;51.270;7.224;2022-12-13T15:51:07;2.70;88.80
21895;DHT22;11112;51.270;7.224;2022-12-13T15:53:53;2.70;88.60
21895;DHT22;11112;51.270;7.224;2022-12-13T15:56:32;2.70;88.20
21895;DHT22;11112;51.270;7.224;2022-12-13T15:59:01;2.70;88.20
21895;DHT22;11112;51.270;7.224;2022-12-13T16:01:32;2.70;87.40
21895;DHT22;11112;51.270;7.224;2022-12-13T16:04:00;2.70;86.10
21895;DHT22;11112;51.270;7.224;2022-12-13T16:06:32;2.60;86.00
21895;DHT22;11112;51.270;7.224;2022-12-13T16:09:05;2.60;86.40
21895;DHT22;11112;51.270;7.224;2022-12-13T16:11:47;2.60;86.40
21895;DHT22;11112;51.270;7.224;2022-12-13T16:14:39;2.60;85.90
21895;DHT22;11112;51.270;7.224;2022-12-13T16:17:14;2.60;86.70
21895;DHT22;11112;51.270;7.224;2022-12-13T16:19:46;2.60;86.70
21895;DHT22;11112;51.270;7.224;2022-12-13T16:22:14;2.60;87.00
21895;DHT22;11112;51.270;7.224;2022-12-13T16:24:44;2.70;87.10
21895;DHT22;11112;51.270;7.224;2022-12-13T16:27:11;2.70;87.60
21895;DHT22;11112;51.270;7.224;2022-12-13T16:29:40;2.70;86.90
21895;DHT22;11112;51.270;7.224;2022-12-13T16:32:08;2.70;87.60
21895;DHT22;11112;51.270;7.224;2022-12-13T16:34:38;2.70;87.20
21895;DHT22;11112;51.270;7.224;2022-12-13T16:37:09;2.80;87.20
21895;DHT22;11112;51.270;7.224;2022-12-13T16:39:37;2.70;86.80
21895;DHT22;11112;51.270;7.224;2022-12-13T16:42:07;2.70;87.20
21895;DHT22;11112;51.270;7.224;2022-12-13T16:44:38;2.70;86.80
21895;DHT22;11112;51.270;7.224;2022-12-13T16:47:11;2.70;86.90
21895;DHT22;11112;51.270;7.224;2022-12-13T16:49:43;2.70;86.90